sensor_id;sensor_type;location;lat;lon;timestamp;P1;durP1;ratioP1;P2;durP2;ratioP2
41512;SDS011;27244;59.940;30.280;2022-11-20T00:02:21;7.53;;;5.80;;
41512;SDS011;27244;59.940;30.280;2022-11-20T00:04:48;7.50;;;5.18;;
41512;SDS011;27244;59.940;30.280;2022-11-20T00:07:16;8.43;;;5.10;;
41512;SDS011;27244;59.940;30.280;2022-11-20T00:09:43;8.20;;;5.32;;
41512;SDS011;27244;59.940;30.280;2022-11-20T00:12:10;9.55;;;5.07;;
41512;SDS011;27244;59.940;30.280;2022-11-20T00:14:37;8.65;;;4.80;;
41512;SDS011;27244;59.940;30.280;2022-11-20T00:17:06;7.03;;;5.00;;
41512;SDS011;27244;59.940;30.280;2022-11-20T00:19:33;9.20;;;4.50;;
41512;SDS011;27244;59.940;30.280;2022-11-20T00:22:00;8.55;;;4.45;;
41512;SDS011;27244;59.940;30.280;2022-11-20T00:24:28;12.05;;;4.75;;
41512;SDS011;27244;59.940;30.280;2022-11-20T00:26:55;7.40;;;4.47;;
41512;SDS011;27244;59.940;30.280;2022-11-20T00:29:22;6.20;;;4.25;;
41512;SDS011;27244;59.940;30.280;2022-11-20T00:31:49;7.90;;;4.32;;
41512;SDS011;27244;59.940;30.280;2022-11-20T00:34:16;6.53;;;3.90;;
41512;SDS011;27244;59.940;30.280;2022-11-20T00:36:43;5.18;;;3.92;;
41512;SDS011;27244;59.940;30.280;2022-11-20T00:39:10;5.32;;;3.40;;
41512;SDS011;27244;59.940;30.280;2022-11-20T00:41:38;3.47;;;3.08;;
41512;SDS011;27244;59.940;30.280;2022-11-20T00:44:05;3.65;;;3.05;;
41512;SDS011;27244;59.940;30.280;2022-11-20T00:46:32;4.05;;;2.90;;
41512;SDS011;27244;59.940;30.280;2022-11-20T00:48:59;3.80;;;2.80;;
41512;SDS011;27244;59.940;30.280;2022-11-20T00:51:27;3.70;;;3.10;;
41512;SDS011;27244;59.940;30.280;2022-11-20T00:53:55;4.35;;;3.13;;
41512;SDS011;27244;59.940;30.280;2022-11-20T00:56:22;3.88;;;3.10;;
41512;SDS011;27244;59.940;30.280;2022-11-20T00:58:50;4.03;;;3.00;;
41512;SDS011;27244;59.940;30.280;2022-11-20T01:01:18;3.72;;;2.50;;
41512;SDS011;27244;59.940;30.280;2022-11-20T01:03:46;4.28;;;2.67;;
41512;SDS011;27244;59.940;30.280;2022-11-20T01:06:16;5.63;;;3.20;;
41512;SDS011;27244;59.940;30.280;2022-11-20T01:08:44;3.25;;;2.65;;
41512;SDS011;27244;59.940;30.280;2022-11-20T01:11:13;3.13;;;2.30;;
41512;SDS011;27244;59.940;30.280;2022-11-20T01:13:41;2.67;;;2.33;;
41512;SDS011;27244;59.940;30.280;2022-11-20T01:16:11;3.88;;;2.35;;
41512;SDS011;27244;59.940;30.280;2022-11-20T01:21:08;2.63;;;2.30;;
41512;SDS011;27244;59.940;30.280;2022-11-20T01:23:37;3.00;;;2.13;;
41512;SDS011;27244;59.940;30.280;2022-11-20T01:26:07;3.35;;;2.10;;
41512;SDS011;27244;59.940;30.280;2022-11-20T01:28:36;2.75;;;1.80;;
41512;SDS011;27244;59.940;30.280;2022-11-20T01:31:11;3.13;;;2.10;;
41512;SDS011;27244;59.940;30.280;2022-11-20T01:33:40;2.20;;;1.90;;
41512;SDS011;27244;59.940;30.280;2022-11-20T01:36:08;2.35;;;1.80;;
41512;SDS011;27244;59.940;30.280;2022-11-20T01:38:36;2.70;;;2.03;;
41512;SDS011;27244;59.940;30.280;2022-11-20T01:41:03;2.92;;;2.00;;
41512;SDS011;27244;59.940;30.280;2022-11-20T01:43:31;2.65;;;1.80;;
41512;SDS011;27244;59.940;30.280;2022-11-20T01:46:13;2.47;;;1.88;;
41512;SDS011;27244;59.940;30.280;2022-11-20T01:48:43;2.28;;;1.58;;
41512;SDS011;27244;59.940;30.280;2022-11-20T01:51:17;1.75;;;1.52;;
41512;SDS011;27244;59.940;30.280;2022-11-20T01:53:52;2.20;;;1.38;;
41512;SDS011;27244;59.940;30.280;2022-11-20T01:56:22;2.70;;;1.80;;
41512;SDS011;27244;59.940;30.280;2022-11-20T01:58:51;2.65;;;1.55;;
41512;SDS011;27244;59.940;30.280;2022-11-20T02:01:23;3.60;;;1.80;;
41512;SDS011;27244;59.940;30.280;2022-11-20T02:03:50;4.30;;;1.60;;
41512;SDS011;27244;59.940;30.280;2022-11-20T02:06:19;2.15;;;1.50;;
41512;SDS011;27244;59.940;30.280;2022-11-20T02:08:50;2.00;;;1.40;;
41512;SDS011;27244;59.940;30.280;2022-11-20T02:11:17;2.40;;;1.50;;
41512;SDS011;27244;59.940;30.280;2022-11-20T02:13:45;2.17;;;1.60;;
41512;SDS011;27244;59.940;30.280;2022-11-20T02:16:13;2.03;;;1.60;;
41512;SDS011;27244;59.940;30.280;2022-11-20T02:18:44;1.90;;;1.40;;
41512;SDS011;27244;59.940;30.280;2022-11-20T02:21:14;2.05;;;1.58;;
41512;SDS011;27244;59.940;30.280;2022-11-20T02:23:57;1.67;;;1.50;;
41512;SDS011;27244;59.940;30.280;2022-11-20T02:26:27;2.20;;;1.50;;
41512;SDS011;27244;59.940;30.280;2022-11-20T02:28:56;2.70;;;1.70;;
41512;SDS011;27244;59.940;30.280;2022-11-20T02:31:24;2.58;;;1.40;;
41512;SDS011;27244;59.940;30.280;2022-11-20T02:33:54;2.65;;;1.63;;
41512;SDS011;27244;59.940;30.280;2022-11-20T02:36:22;1.92;;;1.30;;
41512;SDS011;27244;59.940;30.280;2022-11-20T02:38:51;1.50;;;1.27;;
41512;SDS011;27244;59.940;30.280;2022-11-20T02:41:20;2.22;;;1.50;;
41512;SDS011;27244;59.940;30.280;2022-11-20T02:43:47;1.88;;;1.50;;
41512;SDS011;27244;59.940;30.280;2022-11-20T02:46:14;2.22;;;1.67;;
41512;SDS011;27244;59.940;30.280;2022-11-20T02:48:41;1.80;;;1.23;;
41512;SDS011;27244;59.940;30.280;2022-11-20T02:51:08;1.80;;;1.20;;
41512;SDS011;27244;59.940;30.280;2022-11-20T02:53:35;3.28;;;1.52;;
41512;SDS011;27244;59.940;30.280;2022-11-20T02:56:02;1.65;;;1.30;;
41512;SDS011;27244;59.940;30.280;2022-11-20T02:58:30;1.83;;;1.20;;
41512;SDS011;27244;59.940;30.280;2022-11-20T03:00:57;1.92;;;1.60;;
41512;SDS011;27244;59.940;30.280;2022-11-20T03:03:24;2.30;;;1.52;;
41512;SDS011;27244;59.940;30.280;2022-11-20T03:05:51;1.77;;;1.30;;
41512;SDS011;27244;59.940;30.280;2022-11-20T03:08:18;2.67;;;1.33;;
41512;SDS011;27244;59.940;30.280;2022-11-20T03:10:45;2.72;;;1.48;;
41512;SDS011;27244;59.940;30.280;2022-11-20T03:13:12;1.65;;;1.45;;
41512;SDS011;27244;59.940;30.280;2022-11-20T03:15:40;1.80;;;1.35;;
41512;SDS011;27244;59.940;30.280;2022-11-20T03:18:07;1.83;;;1.35;;
41512;SDS011;27244;59.940;30.280;2022-11-20T03:20:34;2.75;;;1.55;;
41512;SDS011;27244;59.940;30.280;2022-11-20T03:23:01;2.90;;;1.52;;
41512;SDS011;27244;59.940;30.280;2022-11-20T03:25:28;1.95;;;1.25;;
41512;SDS011;27244;59.940;30.280;2022-11-20T03:27:55;1.77;;;1.40;;
41512;SDS011;27244;59.940;30.280;2022-11-20T03:30:22;1.63;;;1.30;;
41512;SDS011;27244;59.940;30.280;2022-11-20T03:32:53;2.03;;;1.48;;
41512;SDS011;27244;59.940;30.280;2022-11-20T03:35:20;2.00;;;1.45;;
41512;SDS011;27244;59.940;30.280;2022-11-20T03:37:47;1.65;;;1.30;;
41512;SDS011;27244;59.940;30.280;2022-11-20T03:40:14;1.92;;;1.45;;
41512;SDS011;27244;59.940;30.280;2022-11-20T03:42:41;2.15;;;1.35;;
41512;SDS011;27244;59.940;30.280;2022-11-20T03:45:11;1.55;;;1.35;;
41512;SDS011;27244;59.940;30.280;2022-11-20T03:47:38;2.97;;;1.60;;
41512;SDS011;27244;59.940;30.280;2022-11-20T03:50:07;2.85;;;1.48;;
41512;SDS011;27244;59.940;30.280;2022-11-20T03:52:35;5.20;;;1.70;;
41512;SDS011;27244;59.940;30.280;2022-11-20T03:55:02;2.17;;;1.33;;
41512;SDS011;27244;59.940;30.280;2022-11-20T03:57:29;2.08;;;1.40;;
41512;SDS011;27244;59.940;30.280;2022-11-20T03:59:56;2.50;;;1.60;;
41512;SDS011;27244;59.940;30.280;2022-11-20T04:02:23;3.15;;;1.58;;
41512;SDS011;27244;59.940;30.280;2022-11-20T04:04:50;2.20;;;1.65;;
41512;SDS011;27244;59.940;30.280;2022-11-20T04:07:18;2.08;;;1.50;;
41512;SDS011;27244;59.940;30.280;2022-11-20T04:09:45;2.47;;;1.50;;
41512;SDS011;27244;59.940;30.280;2022-11-20T04:12:12;2.03;;;1.63;;
41512;SDS011;27244;59.940;30.280;2022-11-20T04:14:39;2.08;;;1.45;;
41512;SDS011;27244;59.940;30.280;2022-11-20T04:17:06;2.72;;;1.95;;
41512;SDS011;27244;59.940;30.280;2022-11-20T04:19:33;3.15;;;1.90;;
41512;SDS011;27244;59.940;30.280;2022-11-20T04:22:00;2.60;;;1.98;;
41512;SDS011;27244;59.940;30.280;2022-11-20T04:24:28;4.05;;;2.08;;
41512;SDS011;27244;59.940;30.280;2022-11-20T04:26:55;2.22;;;1.80;;
41512;SDS011;27244;59.940;30.280;2022-11-20T04:29:22;2.80;;;1.98;;
41512;SDS011;27244;59.940;30.280;2022-11-20T04:31:49;2.63;;;2.00;;
41512;SDS011;27244;59.940;30.280;2022-11-20T04:34:16;2.97;;;1.92;;
41512;SDS011;27244;59.940;30.280;2022-11-20T04:36:43;2.42;;;1.77;;
41512;SDS011;27244;59.940;30.280;2022-11-20T04:39:13;4.50;;;2.05;;
41512;SDS011;27244;59.940;30.280;2022-11-20T04:41:43;4.50;;;2.20;;
41512;SDS011;27244;59.940;30.280;2022-11-20T04:44:10;3.38;;;2.13;;
41512;SDS011;27244;59.940;30.280;2022-11-20T04:46:38;3.58;;;1.90;;
41512;SDS011;27244;59.940;30.280;2022-11-20T04:49:07;3.28;;;1.95;;
41512;SDS011;27244;59.940;30.280;2022-11-20T04:51:34;2.70;;;2.25;;
41512;SDS011;27244;59.940;30.280;2022-11-20T04:54:01;3.13;;;1.75;;
41512;SDS011;27244;59.940;30.280;2022-11-20T04:56:28;2.83;;;1.80;;
41512;SDS011;27244;59.940;30.280;2022-11-20T04:58:59;2.88;;;2.00;;
41512;SDS011;27244;59.940;30.280;2022-11-20T05:01:27;3.78;;;2.13;;
41512;SDS011;27244;59.940;30.280;2022-11-20T05:03:53;2.85;;;1.70;;
41512;SDS011;27244;59.940;30.280;2022-11-20T05:06:21;2.22;;;1.63;;
41512;SDS011;27244;59.940;30.280;2022-11-20T05:08:48;2.70;;;1.95;;
41512;SDS011;27244;59.940;30.280;2022-11-20T05:11:16;1.83;;;1.55;;
41512;SDS011;27244;59.940;30.280;2022-11-20T05:13:44;3.35;;;2.22;;
41512;SDS011;27244;59.940;30.280;2022-11-20T05:16:13;2.25;;;1.75;;
41512;SDS011;27244;59.940;30.280;2022-11-20T05:18:42;2.30;;;1.88;;
41512;SDS011;27244;59.940;30.280;2022-11-20T05:21:10;2.22;;;1.85;;
41512;SDS011;27244;59.940;30.280;2022-11-20T05:23:37;2.08;;;1.88;;
41512;SDS011;27244;59.940;30.280;2022-11-20T05:26:05;3.05;;;2.28;;
41512;SDS011;27244;59.940;30.280;2022-11-20T05:28:33;4.22;;;2.20;;
41512;SDS011;27244;59.940;30.280;2022-11-20T05:31:05;2.67;;;2.05;;
41512;SDS011;27244;59.940;30.280;2022-11-20T05:33:34;2.53;;;2.00;;
41512;SDS011;27244;59.940;30.280;2022-11-20T05:36:02;1.88;;;1.70;;
41512;SDS011;27244;59.940;30.280;2022-11-20T05:38:30;2.78;;;2.00;;
41512;SDS011;27244;59.940;30.280;2022-11-20T05:41:02;2.78;;;2.10;;
41512;SDS011;27244;59.940;30.280;2022-11-20T05:43:31;3.67;;;2.10;;
41512;SDS011;27244;59.940;30.280;2022-11-20T05:45:59;2.58;;;1.90;;
41512;SDS011;27244;59.940;30.280;2022-11-20T05:48:29;2.17;;;1.92;;
41512;SDS011;27244;59.940;30.280;2022-11-20T05:50:58;2.97;;;2.20;;
41512;SDS011;27244;59.940;30.280;2022-11-20T05:53:26;3.92;;;1.90;;
41512;SDS011;27244;59.940;30.280;2022-11-20T05:55:56;2.53;;;1.77;;
41512;SDS011;27244;59.940;30.280;2022-11-20T05:58:24;3.50;;;2.25;;
41512;SDS011;27244;59.940;30.280;2022-11-20T06:00:51;3.67;;;2.25;;
41512;SDS011;27244;59.940;30.280;2022-11-20T06:03:18;2.53;;;2.33;;
41512;SDS011;27244;59.940;30.280;2022-11-20T06:05:45;5.55;;;2.42;;
41512;SDS011;27244;59.940;30.280;2022-11-20T06:08:13;3.15;;;2.60;;
41512;SDS011;27244;59.940;30.280;2022-11-20T06:10:40;2.95;;;2.03;;
41512;SDS011;27244;59.940;30.280;2022-11-20T06:13:07;3.92;;;2.28;;
41512;SDS011;27244;59.940;30.280;2022-11-20T06:15:34;3.70;;;2.60;;
41512;SDS011;27244;59.940;30.280;2022-11-20T06:18:01;3.05;;;2.30;;
41512;SDS011;27244;59.940;30.280;2022-11-20T06:20:28;3.30;;;2.30;;
41512;SDS011;27244;59.940;30.280;2022-11-20T06:22:55;3.03;;;2.20;;
41512;SDS011;27244;59.940;30.280;2022-11-20T06:25:23;3.55;;;2.40;;
41512;SDS011;27244;59.940;30.280;2022-11-20T06:27:50;3.17;;;2.35;;
41512;SDS011;27244;59.940;30.280;2022-11-20T06:30:18;3.10;;;2.40;;
41512;SDS011;27244;59.940;30.280;2022-11-20T06:32:45;2.92;;;2.35;;
41512;SDS011;27244;59.940;30.280;2022-11-20T06:35:12;3.47;;;2.65;;
41512;SDS011;27244;59.940;30.280;2022-11-20T06:37:41;3.22;;;2.17;;
41512;SDS011;27244;59.940;30.280;2022-11-20T06:40:09;4.20;;;2.65;;
41512;SDS011;27244;59.940;30.280;2022-11-20T06:42:38;3.25;;;2.40;;
41512;SDS011;27244;59.940;30.280;2022-11-20T06:45:10;3.03;;;2.53;;
41512;SDS011;27244;59.940;30.280;2022-11-20T06:47:42;4.28;;;2.95;;
41512;SDS011;27244;59.940;30.280;2022-11-20T06:50:12;3.25;;;2.38;;
41512;SDS011;27244;59.940;30.280;2022-11-20T06:52:48;3.17;;;2.50;;
41512;SDS011;27244;59.940;30.280;2022-11-20T06:55:15;6.32;;;2.50;;
41512;SDS011;27244;59.940;30.280;2022-11-20T07:32:28;3.25;;;2.60;;
41512;SDS011;27244;59.940;30.280;2022-11-20T07:34:54;3.88;;;2.60;;
41512;SDS011;27244;59.940;30.280;2022-11-20T07:37:21;4.03;;;2.65;;
41512;SDS011;27244;59.940;30.280;2022-11-20T07:39:48;3.75;;;2.78;;
41512;SDS011;27244;59.940;30.280;2022-11-20T07:42:15;3.75;;;2.70;;
41512;SDS011;27244;59.940;30.280;2022-11-20T07:44:42;3.25;;;2.78;;
41512;SDS011;27244;59.940;30.280;2022-11-20T07:47:09;5.10;;;2.92;;
41512;SDS011;27244;59.940;30.280;2022-11-20T07:49:38;3.40;;;2.63;;
41512;SDS011;27244;59.940;30.280;2022-11-20T07:52:04;3.30;;;2.72;;
41512;SDS011;27244;59.940;30.280;2022-11-20T07:54:31;3.30;;;2.75;;
41512;SDS011;27244;59.940;30.280;2022-11-20T07:56:58;3.22;;;2.70;;
41512;SDS011;27244;59.940;30.280;2022-11-20T07:59:25;4.82;;;2.88;;
41512;SDS011;27244;59.940;30.280;2022-11-20T08:01:52;4.47;;;3.17;;
41512;SDS011;27244;59.940;30.280;2022-11-20T08:04:19;4.13;;;2.78;;
41512;SDS011;27244;59.940;30.280;2022-11-20T08:06:48;5.32;;;3.28;;
41512;SDS011;27244;59.940;30.280;2022-11-20T08:09:15;6.40;;;4.05;;
41512;SDS011;27244;59.940;30.280;2022-11-20T08:11:42;5.88;;;4.60;;
41512;SDS011;27244;59.940;30.280;2022-11-20T08:14:26;8.40;;;6.88;;
41512;SDS011;27244;59.940;30.280;2022-11-20T08:16:53;13.05;;;10.32;;
41512;SDS011;27244;59.940;30.280;2022-11-20T08:19:20;14.05;;;10.07;;
41512;SDS011;27244;59.940;30.280;2022-11-20T08:21:48;17.23;;;13.23;;
41512;SDS011;27244;59.940;30.280;2022-11-20T08:24:15;19.17;;;15.68;;
41512;SDS011;27244;59.940;30.280;2022-11-20T08:26:42;17.55;;;13.35;;
41512;SDS011;27244;59.940;30.280;2022-11-20T08:29:09;20.98;;;15.75;;
41512;SDS011;27244;59.940;30.280;2022-11-20T08:31:36;23.08;;;19.35;;
41512;SDS011;27244;59.940;30.280;2022-11-20T08:34:03;23.27;;;15.77;;
41512;SDS011;27244;59.940;30.280;2022-11-20T08:36:32;21.20;;;16.30;;
41512;SDS011;27244;59.940;30.280;2022-11-20T08:39:01;29.58;;;19.65;;
41512;SDS011;27244;59.940;30.280;2022-11-20T08:41:29;25.50;;;17.95;;
41512;SDS011;27244;59.940;30.280;2022-11-20T08:43:58;23.73;;;19.33;;
41512;SDS011;27244;59.940;30.280;2022-11-20T08:46:28;24.27;;;19.50;;
41512;SDS011;27244;59.940;30.280;2022-11-20T08:49:01;28.00;;;22.48;;
41512;SDS011;27244;59.940;30.280;2022-11-20T08:51:29;28.95;;;22.02;;
41512;SDS011;27244;59.940;30.280;2022-11-20T08:53:56;28.38;;;22.75;;
41512;SDS011;27244;59.940;30.280;2022-11-20T08:56:25;30.52;;;25.33;;
41512;SDS011;27244;59.940;30.280;2022-11-20T08:58:52;32.60;;;27.63;;
41512;SDS011;27244;59.940;30.280;2022-11-20T09:01:19;36.83;;;31.33;;
41512;SDS011;27244;59.940;30.280;2022-11-20T09:03:47;36.58;;;30.00;;
41512;SDS011;27244;59.940;30.280;2022-11-20T09:06:15;32.65;;;29.15;;
41512;SDS011;27244;59.940;30.280;2022-11-20T09:08:43;39.15;;;32.20;;
41512;SDS011;27244;59.940;30.280;2022-11-20T09:11:10;43.72;;;36.45;;
41512;SDS011;27244;59.940;30.280;2022-11-20T09:13:41;46.40;;;39.55;;
41512;SDS011;27244;59.940;30.280;2022-11-20T09:16:08;44.70;;;39.23;;
41512;SDS011;27244;59.940;30.280;2022-11-20T09:18:36;41.65;;;36.05;;
41512;SDS011;27244;59.940;30.280;2022-11-20T09:21:04;38.92;;;33.15;;
41512;SDS011;27244;59.940;30.280;2022-11-20T09:23:34;40.42;;;36.00;;
41512;SDS011;27244;59.940;30.280;2022-11-20T09:26:02;45.13;;;39.47;;
41512;SDS011;27244;59.940;30.280;2022-11-20T09:28:29;41.28;;;36.80;;
41512;SDS011;27244;59.940;30.280;2022-11-20T09:30:58;40.28;;;35.88;;
41512;SDS011;27244;59.940;30.280;2022-11-20T09:33:28;42.63;;;36.53;;
41512;SDS011;27244;59.940;30.280;2022-11-20T09:35:55;40.55;;;36.22;;
41512;SDS011;27244;59.940;30.280;2022-11-20T09:38:22;40.13;;;35.83;;
41512;SDS011;27244;59.940;30.280;2022-11-20T09:40:51;41.88;;;37.40;;
41512;SDS011;27244;59.940;30.280;2022-11-20T09:43:25;42.50;;;35.38;;
41512;SDS011;27244;59.940;30.280;2022-11-20T09:46:07;39.03;;;34.80;;
41512;SDS011;27244;59.940;30.280;2022-11-20T09:51:45;38.90;;;34.67;;
41512;SDS011;27244;59.940;30.280;2022-11-20T09:54:20;40.78;;;35.85;;
41512;SDS011;27244;59.940;30.280;2022-11-20T09:56:53;39.63;;;35.33;;
41512;SDS011;27244;59.940;30.280;2022-11-20T09:59:27;40.25;;;35.92;;
41512;SDS011;27244;59.940;30.280;2022-11-20T10:02:01;39.67;;;35.45;;
41512;SDS011;27244;59.940;30.280;2022-11-20T10:04:37;39.05;;;34.80;;
41512;SDS011;27244;59.940;30.280;2022-11-20T10:07:11;40.00;;;35.75;;
41512;SDS011;27244;59.940;30.280;2022-11-20T10:09:47;40.33;;;34.78;;
41512;SDS011;27244;59.940;30.280;2022-11-20T10:12:18;37.15;;;33.22;;
41512;SDS011;27244;59.940;30.280;2022-11-20T10:14:58;37.67;;;33.60;;
41512;SDS011;27244;59.940;30.280;2022-11-20T10:17:48;38.05;;;33.90;;
41512;SDS011;27244;59.940;30.280;2022-11-20T10:20:27;37.50;;;33.47;;
41512;SDS011;27244;59.940;30.280;2022-11-20T10:23:04;36.63;;;32.63;;
41512;SDS011;27244;59.940;30.280;2022-11-20T10:25:48;35.83;;;32.00;;
41512;SDS011;27244;59.940;30.280;2022-11-20T10:28:26;34.60;;;30.85;;
41512;SDS011;27244;59.940;30.280;2022-11-20T10:31:08;35.63;;;31.83;;
41512;SDS011;27244;59.940;30.280;2022-11-20T10:33:40;34.55;;;30.90;;
41512;SDS011;27244;59.940;30.280;2022-11-20T10:36:12;34.42;;;30.75;;
41512;SDS011;27244;59.940;30.280;2022-11-20T10:38:46;33.38;;;29.75;;
41512;SDS011;27244;59.940;30.280;2022-11-20T10:41:20;32.30;;;28.95;;
41512;SDS011;27244;59.940;30.280;2022-11-20T10:43:52;31.92;;;28.25;;
41512;SDS011;27244;59.940;30.280;2022-11-20T10:46:26;85.45;;;29.77;;
41512;SDS011;27244;59.940;30.280;2022-11-20T10:49:09;147.25;;;33.75;;
41512;SDS011;27244;59.940;30.280;2022-11-20T10:51:41;83.15;;;30.35;;
41512;SDS011;27244;59.940;30.280;2022-11-20T10:54:18;372.85;;;49.83;;
41512;SDS011;27244;59.940;30.280;2022-11-20T10:56:52;507.27;;;64.55;;
41512;SDS011;27244;59.940;30.280;2022-11-20T11:02:14;536.03;;;73.43;;
41512;SDS011;27244;59.940;30.280;2022-11-20T11:04:45;530.60;;;67.97;;
41512;SDS011;27244;59.940;30.280;2022-11-20T11:07:15;497.15;;;66.72;;
41512;SDS011;27244;59.940;30.280;2022-11-20T11:09:46;443.90;;;58.40;;
41512;SDS011;27244;59.940;30.280;2022-11-20T11:12:15;401.40;;;54.67;;
41512;SDS011;27244;59.940;30.280;2022-11-20T11:14:47;344.40;;;45.00;;
41512;SDS011;27244;59.940;30.280;2022-11-20T11:17:23;176.75;;;38.30;;
41512;SDS011;27244;59.940;30.280;2022-11-20T11:19:59;215.70;;;37.65;;
41512;SDS011;27244;59.940;30.280;2022-11-20T11:22:28;225.27;;;40.28;;
41512;SDS011;27244;59.940;30.280;2022-11-20T11:24:55;218.38;;;38.00;;
41512;SDS011;27244;59.940;30.280;2022-11-20T11:27:22;250.55;;;39.20;;
41512;SDS011;27244;59.940;30.280;2022-11-20T11:29:49;230.23;;;37.15;;
41512;SDS011;27244;59.940;30.280;2022-11-20T11:32:27;314.85;;;43.35;;
41512;SDS011;27244;59.940;30.280;2022-11-20T11:35:02;278.23;;;41.65;;
41512;SDS011;27244;59.940;30.280;2022-11-20T11:37:32;268.08;;;38.22;;
41512;SDS011;27244;59.940;30.280;2022-11-20T11:40:01;210.05;;;37.95;;
41512;SDS011;27244;59.940;30.280;2022-11-20T11:42:29;221.25;;;37.67;;
41512;SDS011;27244;59.940;30.280;2022-11-20T11:44:57;210.38;;;37.92;;
41512;SDS011;27244;59.940;30.280;2022-11-20T11:47:36;215.40;;;35.10;;
41512;SDS011;27244;59.940;30.280;2022-11-20T11:50:15;146.93;;;33.03;;
41512;SDS011;27244;59.940;30.280;2022-11-20T11:52:45;158.45;;;31.90;;
41512;SDS011;27244;59.940;30.280;2022-11-20T11:55:16;136.63;;;33.08;;
41512;SDS011;27244;59.940;30.280;2022-11-20T11:57:52;131.25;;;31.63;;
41512;SDS011;27244;59.940;30.280;2022-11-20T12:00:26;160.50;;;31.98;;
41512;SDS011;27244;59.940;30.280;2022-11-20T12:02:55;133.45;;;31.08;;
41512;SDS011;27244;59.940;30.280;2022-11-20T12:05:29;145.45;;;31.38;;
41512;SDS011;27244;59.940;30.280;2022-11-20T12:08:03;114.88;;;28.63;;
41512;SDS011;27244;59.940;30.280;2022-11-20T12:10:38;102.28;;;28.42;;
41512;SDS011;27244;59.940;30.280;2022-11-20T12:13:15;103.47;;;28.65;;
41512;SDS011;27244;59.940;30.280;2022-11-20T12:16:01;87.25;;;25.98;;
41512;SDS011;27244;59.940;30.280;2022-11-20T12:18:30;89.88;;;27.73;;
41512;SDS011;27244;59.940;30.280;2022-11-20T12:21:03;95.25;;;25.88;;
41512;SDS011;27244;59.940;30.280;2022-11-20T12:23:42;97.32;;;29.30;;
41512;SDS011;27244;59.940;30.280;2022-11-20T12:26:18;101.15;;;26.40;;
41512;SDS011;27244;59.940;30.280;2022-11-20T12:28:57;83.32;;;24.17;;
41512;SDS011;27244;59.940;30.280;2022-11-20T12:31:46;84.75;;;25.52;;
41512;SDS011;27244;59.940;30.280;2022-11-20T12:37:17;67.32;;;23.92;;
41512;SDS011;27244;59.940;30.280;2022-11-20T12:39:56;69.47;;;24.83;;
41512;SDS011;27244;59.940;30.280;2022-11-20T12:45:46;63.55;;;23.80;;
41512;SDS011;27244;59.940;30.280;2022-11-20T12:48:39;66.63;;;22.65;;
41512;SDS011;27244;59.940;30.280;2022-11-20T12:51:27;60.00;;;23.33;;
41512;SDS011;27244;59.940;30.280;2022-11-20T12:54:11;64.97;;;23.05;;
41512;SDS011;27244;59.940;30.280;2022-11-20T12:57:02;67.47;;;25.13;;
41512;SDS011;27244;59.940;30.280;2022-11-20T12:59:43;62.60;;;24.73;;
41512;SDS011;27244;59.940;30.280;2022-11-20T13:02:29;60.88;;;25.70;;
41512;SDS011;27244;59.940;30.280;2022-11-20T13:05:08;65.13;;;26.45;;
41512;SDS011;27244;59.940;30.280;2022-11-20T13:07:44;60.33;;;29.65;;
41512;SDS011;27244;59.940;30.280;2022-11-20T13:10:16;62.67;;;28.58;;
41512;SDS011;27244;59.940;30.280;2022-11-20T13:12:49;65.43;;;31.83;;
41512;SDS011;27244;59.940;30.280;2022-11-20T13:15:30;69.10;;;32.05;;
41512;SDS011;27244;59.940;30.280;2022-11-20T13:18:10;74.28;;;33.95;;
41512;SDS011;27244;59.940;30.280;2022-11-20T13:20:41;71.45;;;35.05;;
41512;SDS011;27244;59.940;30.280;2022-11-20T13:23:09;71.20;;;34.92;;
41512;SDS011;27244;59.940;30.280;2022-11-20T13:25:38;68.13;;;34.35;;
41512;SDS011;27244;59.940;30.280;2022-11-20T13:30:55;65.68;;;34.08;;
41512;SDS011;27244;59.940;30.280;2022-11-20T13:33:23;64.40;;;31.95;;
41512;SDS011;27244;59.940;30.280;2022-11-20T13:35:55;58.25;;;33.80;;
41512;SDS011;27244;59.940;30.280;2022-11-20T13:38:24;57.92;;;33.38;;
41512;SDS011;27244;59.940;30.280;2022-11-20T13:40:53;59.58;;;34.88;;
41512;SDS011;27244;59.940;30.280;2022-11-20T13:43:22;61.45;;;34.72;;
41512;SDS011;27244;59.940;30.280;2022-11-20T13:45:58;70.63;;;37.08;;
41512;SDS011;27244;59.940;30.280;2022-11-20T13:53:37;81.32;;;44.92;;
41512;SDS011;27244;59.940;30.280;2022-11-20T13:56:18;72.63;;;39.50;;
41512;SDS011;27244;59.940;30.280;2022-11-20T13:58:53;65.55;;;35.80;;
41512;SDS011;27244;59.940;30.280;2022-11-20T14:01:26;66.40;;;38.35;;
41512;SDS011;27244;59.940;30.280;2022-11-20T14:03:56;67.27;;;35.30;;
41512;SDS011;27244;59.940;30.280;2022-11-20T14:06:26;63.70;;;36.45;;
41512;SDS011;27244;59.940;30.280;2022-11-20T14:08:55;54.53;;;33.93;;
41512;SDS011;27244;59.940;30.280;2022-11-20T14:11:25;59.03;;;32.45;;
41512;SDS011;27244;59.940;30.280;2022-11-20T14:13:55;75.55;;;33.25;;
41512;SDS011;27244;59.940;30.280;2022-11-20T14:16:25;104.55;;;36.00;;
41512;SDS011;27244;59.940;30.280;2022-11-20T14:18:53;90.28;;;33.55;;
41512;SDS011;27244;59.940;30.280;2022-11-20T14:21:22;90.15;;;33.55;;
41512;SDS011;27244;59.940;30.280;2022-11-20T14:23:52;178.82;;;41.83;;
41512;SDS011;27244;59.940;30.280;2022-11-20T14:26:20;166.25;;;41.95;;
41512;SDS011;27244;59.940;30.280;2022-11-20T14:28:49;179.63;;;40.88;;
41512;SDS011;27244;59.940;30.280;2022-11-20T14:31:21;174.27;;;40.55;;
41512;SDS011;27244;59.940;30.280;2022-11-20T14:33:51;179.13;;;39.33;;
41512;SDS011;27244;59.940;30.280;2022-11-20T14:36:20;134.15;;;36.47;;
41512;SDS011;27244;59.940;30.280;2022-11-20T14:38:50;156.52;;;36.75;;
41512;SDS011;27244;59.940;30.280;2022-11-20T14:41:19;147.20;;;37.20;;
41512;SDS011;27244;59.940;30.280;2022-11-20T14:43:49;121.28;;;33.83;;
41512;SDS011;27244;59.940;30.280;2022-11-20T14:46:19;129.52;;;35.45;;
41512;SDS011;27244;59.940;30.280;2022-11-20T14:48:47;105.00;;;33.75;;
41512;SDS011;27244;59.940;30.280;2022-11-20T14:51:23;101.00;;;32.40;;
41512;SDS011;27244;59.940;30.280;2022-11-20T14:53:54;111.53;;;34.65;;
41512;SDS011;27244;59.940;30.280;2022-11-20T14:56:21;88.97;;;32.85;;
41512;SDS011;27244;59.940;30.280;2022-11-20T14:58:56;94.40;;;32.58;;
41512;SDS011;27244;59.940;30.280;2022-11-20T15:01:27;82.88;;;31.25;;
41512;SDS011;27244;59.940;30.280;2022-11-20T15:04:00;90.50;;;30.05;;
41512;SDS011;27244;59.940;30.280;2022-11-20T15:06:31;67.05;;;29.35;;
41512;SDS011;27244;59.940;30.280;2022-11-20T15:08:58;87.88;;;31.00;;
41512;SDS011;27244;59.940;30.280;2022-11-20T15:11:27;115.70;;;31.27;;
41512;SDS011;27244;59.940;30.280;2022-11-20T15:13:59;131.70;;;31.55;;
41512;SDS011;27244;59.940;30.280;2022-11-20T15:16:29;139.35;;;32.92;;
41512;SDS011;27244;59.940;30.280;2022-11-20T15:18:57;118.93;;;31.70;;
41512;SDS011;27244;59.940;30.280;2022-11-20T15:21:24;125.03;;;31.58;;
41512;SDS011;27244;59.940;30.280;2022-11-20T15:23:51;107.75;;;29.77;;
41512;SDS011;27244;59.940;30.280;2022-11-20T15:26:20;106.88;;;28.40;;
41512;SDS011;27244;59.940;30.280;2022-11-20T15:28:50;95.95;;;27.13;;
41512;SDS011;27244;59.940;30.280;2022-11-20T15:31:20;101.32;;;27.05;;
41512;SDS011;27244;59.940;30.280;2022-11-20T15:33:49;97.90;;;27.37;;
41512;SDS011;27244;59.940;30.280;2022-11-20T15:36:16;100.70;;;27.90;;